Time;durP1;ratioP1;P1;durP2;ratioP2;P2;SDS_P1;SDS_P2;PMS_P1;PMS_P2;Temp;Humidity;BMP_temperature;BMP_pressure;BME280_temperature;BME280_humidity;BME280_pressure;Samples;Min_cycle;Max_cycle;Signal;HPM_P1;HPM_P2
2023/05/31 00:00:46;;;;;;;4.93;3.50;;;;;;;;;;5057752;28;25073;-71
2023/05/31 00:03:13;;;;;;;8.02;3.58;;;;;;;;;;5058080;28;25142;-70
2023/05/31 00:05:39;;;;;;;9.50;4.40;;;;;;;;;;5053776;28;25059;-69
2023/05/31 00:08:06;;;;;;;5.68;3.72;;;;;;;;;;5056777;28;25063;-68
2023/05/31 00:10:31;;;;;;;11.57;4.35;;;;;;;;;;5062303;28;25364;-70
2023/05/31 00:12:57;;;;;;;6.63;4.07;;;;;;;;;;5064117;28;25054;-70
2023/05/31 00:15:23;;;;;;;7.43;4.25;;;;;;;;;;5068528;28;25145;-70
2023/05/31 00:17:49;;;;;;;6.85;3.67;;;;;;;;;;5059326;28;25130;-71
2023/05/31 00:20:15;;;;;;;7.63;3.88;;;;;;;;;;5058182;28;25132;-69
2023/05/31 00:22:41;;;;;;;11.77;4.90;;;;;;;;;;5059282;28;25065;-70
2023/05/31 00:25:07;;;;;;;7.85;3.88;;;;;;;;;;5067588;28;25054;-72
2023/05/31 00:27:33;;;;;;;10.20;4.47;;;;;;;;;;5068212;28;25066;-70
2023/05/31 00:29:59;;;;;;;6.63;4.10;;;;;;;;;;5067415;28;25137;-70
2023/05/31 00:32:25;;;;;;;10.98;4.47;;;;;;;;;;5055335;28;25077;-70
2023/05/31 00:34:51;;;;;;;7.97;4.47;;;;;;;;;;5057091;28;25061;-69
2023/05/31 00:37:17;;;;;;;8.88;4.03;;;;;;;;;;5055062;28;25059;-71
2023/05/31 00:39:43;;;;;;;8.30;4.40;;;;;;;;;;5057323;28;25078;-70
2023/05/31 00:42:09;;;;;;;9.45;4.55;;;;;;;;;;5057635;28;25106;-70
2023/05/31 00:44:36;;;;;;;8.15;4.13;;;;;;;;;;5057385;28;25082;-69
2023/05/31 00:47:02;;;;;;;6.68;3.95;;;;;;;;;;5059154;28;25064;-69
2023/05/31 00:49:28;;;;;;;8.93;4.50;;;;;;;;;;5057996;28;25065;-69
2023/05/31 00:51:56;;;;;;;11.02;4.75;;;;;;;;;;5056757;28;25134;-71
2023/05/31 00:54:22;;;;;;;7.25;4.43;;;;;;;;;;5056592;28;25075;-69
2023/05/31 00:56:48;;;;;;;7.82;4.50;;;;;;;;;;5057647;28;25046;-70
2023/05/31 00:59:15;;;;;;;10.82;5.25;;;;;;;;;;5056250;28;25076;-72
2023/05/31 01:01:42;;;;;;;7.60;4.55;;;;;;;;;;5057190;28;25068;-71
2023/05/31 01:04:08;;;;;;;9.38;5.65;;;;;;;;;;5057194;28;25067;-71
2023/05/31 01:06:35;;;;;;;9.88;4.72;;;;;;;;;;5057593;28;25085;-71
2023/05/31 01:09:05;;;;;;;9.77;4.75;;;;;;;;;;5056457;28;25130;-72
2023/05/31 01:11:43;;;;;;;11.82;5.38;;;;;;;;;;5058925;28;25114;-72
2023/05/31 01:14:14;;;;;;;8.45;4.90;;;;;;;;;;5056071;28;25105;-70
2023/05/31 01:16:46;;;;;;;9.45;5.07;;;;;;;;;;5060864;28;25162;-71
2023/05/31 01:19:12;;;;;;;;;;;;;;;;;;5057635;28;25090;-71
2023/05/31 01:21:59;;;;;;;8.13;4.60;;;;;;;;;;5057980;28;25119;-71
2023/05/31 01:24:36;;;;;;;9.63;5.15;;;;;;;;;;5014261;28;25068;-70
2023/05/31 01:27:03;;;;;;;9.25;5.32;;;;;;;;;;5058291;28;25064;-75
2023/05/31 01:29:30;;;;;;;8.40;5.10;;;;;;;;;;5057132;28;25052;-69
2023/05/31 01:31:59;;;;;;;9.68;5.50;;;;;;;;;;5061790;28;25097;-71
2023/05/31 01:34:25;;;;;;;12.20;5.18;;;;;;;;;;5055000;28;25054;-70
2023/05/31 01:36:51;;;;;;;13.05;5.18;;;;;;;;;;5056348;28;25062;-70
2023/05/31 01:39:17;;;;;;;11.70;5.60;;;;;;;;;;5054515;28;25062;-72
2023/05/31 01:41:45;;;;;;;15.23;5.50;;;;;;;;;;5057232;28;25093;-73
2023/05/31 01:44:12;;;;;;;10.50;5.97;;;;;;;;;;5056291;28;25047;-69
2023/05/31 01:46:39;;;;;;;9.70;5.82;;;;;;;;;;5056905;28;25101;-70
2023/05/31 01:49:05;;;;;;;10.80;5.75;;;;;;;;;;5056658;28;25105;-70
2023/05/31 01:51:33;;;;;;;11.02;5.88;;;;;;;;;;5056367;28;25094;-71
2023/05/31 01:53:59;;;;;;;10.82;5.43;;;;;;;;;;5056746;28;25076;-71
2023/05/31 01:56:28;;;;;;;11.90;6.10;;;;;;;;;;5056418;28;25063;-70
2023/05/31 01:58:55;;;;;;;8.95;5.43;;;;;;;;;;5054536;28;25071;-71
2023/05/31 02:01:21;;;;;;;9.18;5.55;;;;;;;;;;5055231;28;25141;-70
2023/05/31 02:03:49;;;;;;;12.80;6.13;;;;;;;;;;5054130;28;25063;-71
2023/05/31 02:06:15;;;;;;;13.32;6.25;;;;;;;;;;5057696;28;25145;-69
2023/05/31 02:08:41;;;;;;;10.98;5.82;;;;;;;;;;5054546;28;25151;-69
2023/05/31 02:11:07;;;;;;;11.52;5.70;;;;;;;;;;5055064;28;25133;-71
2023/05/31 02:13:34;;;;;;;15.25;6.47;;;;;;;;;;5055062;28;25058;-72
2023/05/31 02:16:00;;;;;;;15.63;6.60;;;;;;;;;;5055135;28;25124;-70
2023/05/31 02:18:27;;;;;;;13.48;6.82;;;;;;;;;;5054815;28;25104;-69
2023/05/31 02:20:53;;;;;;;14.27;5.88;;;;;;;;;;5054864;28;25074;-68
2023/05/31 02:23:20;;;;;;;11.10;6.95;;;;;;;;;;5054923;28;25154;-70
2023/05/31 02:25:46;;;;;;;11.25;6.85;;;;;;;;;;5042513;28;25091;-70
2023/05/31 02:28:13;;;;;;;20.02;6.47;;;;;;;;;;5055834;28;25082;-69
2023/05/31 02:30:40;;;;;;;11.93;6.55;;;;;;;;;;5055316;28;25071;-71
2023/05/31 02:33:07;;;;;;;15.02;6.35;;;;;;;;;;5056634;28;25068;-70
2023/05/31 02:35:33;;;;;;;17.25;6.93;;;;;;;;;;5057104;28;25150;-70
2023/05/31 02:37:58;;;;;;;12.07;6.78;;;;;;;;;;5059023;28;25138;-70
2023/05/31 02:40:24;;;;;;;11.55;6.03;;;;;;;;;;5059381;28;25085;-69
2023/05/31 02:42:50;;;;;;;14.13;6.78;;;;;;;;;;5059975;28;25063;-70
2023/05/31 02:45:16;;;;;;;9.38;6.13;;;;;;;;;;5062686;28;25071;-71
2023/05/31 02:47:42;;;;;;;14.07;7.38;;;;;;;;;;5063467;28;25124;-71
2023/05/31 02:50:09;;;;;;;14.00;6.47;;;;;;;;;;5065449;28;25054;-70
2023/05/31 02:52:35;;;;;;;14.27;7.40;;;;;;;;;;5060825;28;25076;-69
2023/05/31 02:55:01;;;;;;;14.98;6.70;;;;;;;;;;5065292;28;25065;-71
2023/05/31 02:57:27;;;;;;;15.77;6.55;;;;;;;;;;5061606;28;25164;-70
2023/05/31 02:59:57;;;;;;;12.27;6.60;;;;;;;;;;5059917;28;25059;-70
2023/05/31 03:02:24;;;;;;;10.77;6.35;;;;;;;;;;5059951;28;25116;-69
2023/05/31 03:04:50;;;;;;;14.63;6.43;;;;;;;;;;5051278;28;25068;-70
2023/05/31 03:07:16;;;;;;;12.13;6.65;;;;;;;;;;5063375;28;25072;-70
2023/05/31 03:09:42;;;;;;;12.73;6.35;;;;;;;;;;5063192;28;25118;-71
2023/05/31 03:12:08;;;;;;;12.45;6.82;;;;;;;;;;5063240;28;25086;-70
2023/05/31 03:14:34;;;;;;;12.13;6.60;;;;;;;;;;5061153;28;25067;-71
2023/05/31 03:17:00;;;;;;;14.23;5.88;;;;;;;;;;5060349;28;25061;-70
2023/05/31 03:19:27;;;;;;;13.85;6.57;;;;;;;;;;5060761;28;25133;-72
2023/05/31 03:21:53;;;;;;;14.98;7.65;;;;;;;;;;5060832;28;25068;-72
2023/05/31 03:24:19;;;;;;;12.52;7.07;;;;;;;;;;5059441;28;25150;-73
2023/05/31 03:26:45;;;;;;;14.98;7.18;;;;;;;;;;5060859;28;25069;-70
2023/05/31 03:29:11;;;;;;;14.82;6.70;;;;;;;;;;5058751;28;25060;-71
2023/05/31 03:31:37;;;;;;;15.32;6.85;;;;;;;;;;5063157;28;25113;-69
2023/05/31 03:34:03;;;;;;;13.95;6.80;;;;;;;;;;5057289;28;25061;-71
2023/05/31 03:36:29;;;;;;;14.27;7.93;;;;;;;;;;5060681;28;25157;-70
2023/05/31 03:38:55;;;;;;;12.35;7.07;;;;;;;;;;5059672;28;25066;-70
2023/05/31 03:41:21;;;;;;;13.93;7.30;;;;;;;;;;5060572;28;25060;-71
2023/05/31 03:43:47;;;;;;;13.73;7.03;;;;;;;;;;5059781;28;25158;-71
2023/05/31 03:46:13;;;;;;;12.35;6.85;;;;;;;;;;5044700;28;25074;-69
2023/05/31 03:48:39;;;;;;;13.88;7.70;;;;;;;;;;5057971;28;25154;-71
2023/05/31 03:51:05;;;;;;;13.70;7.05;;;;;;;;;;5058394;28;25070;-71
2023/05/31 03:53:31;;;;;;;14.55;7.13;;;;;;;;;;5056449;28;25131;-70
2023/05/31 03:55:57;;;;;;;16.75;8.20;;;;;;;;;;5058334;28;25062;-71
2023/05/31 03:58:24;;;;;;;18.33;8.48;;;;;;;;;;5058492;28;25154;-69
2023/05/31 04:00:50;;;;;;;15.63;6.85;;;;;;;;;;5056154;28;25051;-70
2023/05/31 04:03:17;;;;;;;16.90;7.50;;;;;;;;;;5057023;28;25099;-69
2023/05/31 04:05:43;;;;;;;16.92;7.95;;;;;;;;;;5058470;28;25069;-71
2023/05/31 04:08:10;;;;;;;12.10;7.40;;;;;;;;;;5054925;28;25121;-71
2023/05/31 04:10:36;;;;;;;12.30;7.47;;;;;;;;;;5058201;28;25174;-71
2023/05/31 04:13:01;;;;;;;13.38;7.03;;;;;;;;;;5056199;28;25091;-70
2023/05/31 04:15:28;;;;;;;20.75;7.95;;;;;;;;;;5058763;28;25143;-70
2023/05/31 04:17:55;;;;;;;14.85;7.18;;;;;;;;;;5057826;28;25058;-72
2023/05/31 04:20:21;;;;;;;14.02;7.57;;;;;;;;;;5058343;28;25052;-69
2023/05/31 04:22:47;;;;;;;19.23;8.05;;;;;;;;;;5058220;28;25068;-70
2023/05/31 04:25:13;;;;;;;16.10;6.82;;;;;;;;;;5059791;28;25045;-72
2023/05/31 04:27:40;;;;;;;14.07;7.32;;;;;;;;;;5055723;28;25060;-70
2023/05/31 04:30:07;;;;;;;12.63;6.90;;;;;;;;;;5057681;28;25070;-71
2023/05/31 04:32:34;;;;;;;16.40;7.90;;;;;;;;;;5056431;28;25064;-71
2023/05/31 04:35:03;;;;;;;15.63;7.75;;;;;;;;;;5044399;28;25057;-70
2023/05/31 04:37:29;;;;;;;15.98;7.00;;;;;;;;;;5056185;28;25104;-71
2023/05/31 04:39:58;;;;;;;14.00;7.90;;;;;;;;;;5056706;28;25082;-70
2023/05/31 04:42:25;;;;;;;14.75;6.78;;;;;;;;;;5057735;28;25122;-69
2023/05/31 04:44:57;;;;;;;16.10;7.30;;;;;;;;;;5062914;28;25069;-72
2023/05/31 04:47:24;;;;;;;14.07;7.00;;;;;;;;;;5059830;28;25049;-71
2023/05/31 04:49:50;;;;;;;13.45;6.85;;;;;;;;;;5065077;28;25049;-70
2023/05/31 04:52:17;;;;;;;15.95;7.40;;;;;;;;;;5057541;28;25087;-72
2023/05/31 04:54:43;;;;;;;17.90;7.35;;;;;;;;;;5061936;28;25060;-73
2023/05/31 04:57:09;;;;;;;21.95;7.88;;;;;;;;;;5056013;28;25066;-71
2023/05/31 04:59:35;;;;;;;17.65;8.30;;;;;;;;;;5058074;28;25053;-71
2023/05/31 05:02:02;;;;;;;19.40;7.35;;;;;;;;;;5056769;28;25081;-71
2023/05/31 05:04:27;;;;;;;21.23;8.27;;;;;;;;;;5055574;28;25043;-73
2023/05/31 05:06:53;;;;;;;12.15;6.95;;;;;;;;;;5056973;28;25051;-71
2023/05/31 05:09:20;;;;;;;19.77;7.90;;;;;;;;;;5057148;28;25095;-69
2023/05/31 05:11:46;;;;;;;12.98;7.45;;;;;;;;;;5060334;28;25138;-70
2023/05/31 05:14:12;;;;;;;16.25;8.68;;;;;;;;;;5041565;28;25148;-71
2023/05/31 05:16:38;;;;;;;17.27;7.22;;;;;;;;;;5058460;28;25104;-70
2023/05/31 05:19:04;;;;;;;12.05;6.75;;;;;;;;;;5041379;28;25143;-69
2023/05/31 05:21:30;;;;;;;12.82;7.38;;;;;;;;;;5043978;28;25122;-70
2023/05/31 05:23:56;;;;;;;14.40;7.57;;;;;;;;;;5053703;28;25046;-71
2023/05/31 05:26:22;;;;;;;15.27;7.20;;;;;;;;;;5052405;28;25055;-73
2023/05/31 05:28:49;;;;;;;16.33;7.07;;;;;;;;;;5052340;28;25366;-69
2023/05/31 05:31:14;;;;;;;14.45;7.75;;;;;;;;;;5054332;28;25051;-71
2023/05/31 05:33:40;;;;;;;11.07;6.82;;;;;;;;;;5052295;28;25107;-70
2023/05/31 05:36:06;;;;;;;15.68;7.78;;;;;;;;;;5053169;28;25071;-69
2023/05/31 05:38:32;;;;;;;18.75;7.20;;;;;;;;;;5040851;28;25045;-69
2023/05/31 05:40:58;;;;;;;14.38;8.10;;;;;;;;;;5054972;28;25048;-70
2023/05/31 05:43:24;;;;;;;13.57;7.78;;;;;;;;;;5054341;28;25100;-71
2023/05/31 05:45:50;;;;;;;13.07;6.82;;;;;;;;;;5056352;28;25133;-71
2023/05/31 05:48:16;;;;;;;17.50;8.18;;;;;;;;;;5053736;28;25065;-70
2023/05/31 05:50:42;;;;;;;16.48;7.88;;;;;;;;;;5057166;28;25061;-70
2023/05/31 05:53:08;;;;;;;13.82;6.90;;;;;;;;;;5059706;28;25068;-71
2023/05/31 05:55:34;;;;;;;13.55;6.38;;;;;;;;;;5062310;28;25135;-69
2023/05/31 05:58:00;;;;;;;14.15;7.80;;;;;;;;;;5054441;28;25057;-70
2023/05/31 06:00:26;;;;;;;18.05;9.18;;;;;;;;;;5053628;28;25072;-68
2023/05/31 06:02:52;;;;;;;13.15;7.40;;;;;;;;;;5040973;28;25056;-70
2023/05/31 06:05:25;;;;;;;16.30;7.65;;;;;;;;;;5065070;28;25058;-68
2023/05/31 06:07:50;;;;;;;18.02;8.30;;;;;;;;;;5064144;28;25091;-69
2023/05/31 06:10:16;;;;;;;17.85;8.77;;;;;;;;;;5059837;28;25106;-69
2023/05/31 06:12:42;;;;;;;17.58;9.27;;;;;;;;;;5042379;28;25058;-69
2023/05/31 06:15:09;;;;;;;18.75;8.82;;;;;;;;;;5061916;28;25056;-70
2023/05/31 06:17:34;;;;;;;13.18;7.75;;;;;;;;;;5051596;28;25082;-69
2023/05/31 06:20:00;;;;;;;16.23;9.20;;;;;;;;;;5059160;28;25104;-70
2023/05/31 06:22:26;;;;;;;17.50;8.48;;;;;;;;;;5057252;28;25064;-71
2023/05/31 06:24:54;;;;;;;16.83;8.25;;;;;;;;;;5058092;28;25051;-68
2023/05/31 06:27:20;;;;;;;15.82;8.93;;;;;;;;;;5056125;28;25068;-70
2023/05/31 06:29:46;;;;;;;15.02;8.30;;;;;;;;;;5058231;28;25066;-69
2023/05/31 06:32:12;;;;;;;19.10;8.90;;;;;;;;;;5045106;28;25058;-69
2023/05/31 06:34:38;;;;;;;13.35;7.75;;;;;;;;;;5057472;28;25074;-68
2023/05/31 06:37:05;;;;;;;22.33;8.75;;;;;;;;;;5054837;28;25061;-68
2023/05/31 06:39:31;;;;;;;17.77;8.82;;;;;;;;;;5056574;28;25047;-69
2023/05/31 06:41:59;;;;;;;14.63;8.13;;;;;;;;;;5056394;28;25164;-69
2023/05/31 06:44:25;;;;;;;23.60;8.95;;;;;;;;;;5044352;28;25081;-71
2023/05/31 06:46:51;;;;;;;17.52;8.20;;;;;;;;;;5055673;28;25056;-69
2023/05/31 06:49:17;;;;;;;15.00;8.07;;;;;;;;;;5056043;28;25062;-68
2023/05/31 06:51:43;;;;;;;18.40;9.23;;;;;;;;;;5057796;28;25060;-68
2023/05/31 06:54:09;;;;;;;17.38;9.20;;;;;;;;;;5055635;28;25101;-71
2023/05/31 06:56:35;;;;;;;20.33;9.25;;;;;;;;;;5060496;28;25072;-70
2023/05/31 06:59:01;;;;;;;17.00;8.55;;;;;;;;;;5057902;28;25088;-70
2023/05/31 07:01:28;;;;;;;15.05;7.82;;;;;;;;;;5058650;28;25076;-68
2023/05/31 07:03:54;;;;;;;16.27;8.35;;;;;;;;;;5043593;28;25052;-70
2023/05/31 07:06:20;;;;;;;17.63;8.85;;;;;;;;;;5056584;28;25128;-68
2023/05/31 07:08:46;;;;;;;18.25;9.35;;;;;;;;;;5055935;28;25089;-71
2023/05/31 07:11:13;;;;;;;20.27;8.73;;;;;;;;;;5054661;28;25069;-69
2023/05/31 07:13:39;;;;;;;18.80;9.43;;;;;;;;;;5054965;28;25087;-72
2023/05/31 07:16:05;;;;;;;16.63;9.75;;;;;;;;;;5054880;28;25076;-68
2023/05/31 07:18:31;;;;;;;14.73;8.77;;;;;;;;;;5054762;28;25133;-70
2023/05/31 07:20:57;;;;;;;13.30;9.02;;;;;;;;;;5057483;28;25065;-69
2023/05/31 07:23:24;;;;;;;16.13;9.25;;;;;;;;;;5053612;28;25056;-69
2023/05/31 07:25:50;;;;;;;17.80;8.50;;;;;;;;;;5059860;28;25054;-70
2023/05/31 07:28:16;;;;;;;14.82;7.63;;;;;;;;;;5055665;28;25077;-70
2023/05/31 07:30:42;;;;;;;18.73;9.15;;;;;;;;;;5059693;28;25057;-71
2023/05/31 07:33:08;;;;;;;24.73;9.25;;;;;;;;;;5055355;28;25076;-71
2023/05/31 07:35:34;;;;;;;18.65;8.90;;;;;;;;;;5047017;28;25059;-71
2023/05/31 07:38:00;;;;;;;15.98;8.63;;;;;;;;;;5054504;28;25133;-70
2023/05/31 07:40:26;;;;;;;20.95;8.05;;;;;;;;;;5054514;28;25057;-70
2023/05/31 07:42:53;;;;;;;14.05;8.00;;;;;;;;;;5054920;28;25054;-70
2023/05/31 07:45:19;;;;;;;12.68;7.60;;;;;;;;;;5060304;28;25076;-70
2023/05/31 07:47:45;;;;;;;14.18;7.72;;;;;;;;;;5054726;28;25106;-70
2023/05/31 07:50:11;;;;;;;16.67;7.68;;;;;;;;;;5053475;28;25143;-70
2023/05/31 07:52:37;;;;;;;17.88;8.48;;;;;;;;;;5055385;28;25175;-70
2023/05/31 07:55:03;;;;;;;15.48;8.15;;;;;;;;;;5054765;28;25111;-72
2023/05/31 07:57:29;;;;;;;18.02;7.85;;;;;;;;;;5055923;28;25059;-69
2023/05/31 07:59:55;;;;;;;20.42;8.80;;;;;;;;;;5056118;28;25113;-69
2023/05/31 08:02:21;;;;;;;17.73;7.85;;;;;;;;;;5055037;28;25176;-72
2023/05/31 08:04:47;;;;;;;14.48;8.07;;;;;;;;;;5055172;28;25069;-71
2023/05/31 08:07:13;;;;;;;15.65;7.63;;;;;;;;;;5052879;28;25062;-73
2023/05/31 08:09:39;;;;;;;16.90;8.88;;;;;;;;;;5055622;28;25149;-71
2023/05/31 08:12:06;;;;;;;19.75;8.45;;;;;;;;;;5057217;28;25113;-71
2023/05/31 08:14:32;;;;;;;14.38;7.38;;;;;;;;;;5054458;28;25075;-70
2023/05/31 08:16:58;;;;;;;16.38;8.20;;;;;;;;;;5054920;28;25071;-72
2023/05/31 08:19:24;;;;;;;18.52;7.40;;;;;;;;;;5052288;28;25085;-70
2023/05/31 08:21:51;;;;;;;14.60;8.32;;;;;;;;;;5055011;28;25122;-71
2023/05/31 08:24:17;;;;;;;18.25;7.53;;;;;;;;;;5053427;28;25052;-70
2023/05/31 08:26:43;;;;;;;12.52;7.47;;;;;;;;;;5056676;28;25048;-71
2023/05/31 08:29:09;;;;;;;13.15;6.90;;;;;;;;;;5052641;28;25090;-70
2023/05/31 08:31:35;;;;;;;18.55;8.38;;;;;;;;;;5055440;28;25067;-71
2023/05/31 08:34:01;;;;;;;17.35;7.70;;;;;;;;;;5053291;28;25078;-69
2023/05/31 08:36:27;;;;;;;17.20;7.70;;;;;;;;;;5054902;28;25076;-68
2023/05/31 08:38:53;;;;;;;19.05;7.53;;;;;;;;;;5055095;28;25102;-70
2023/05/31 08:41:20;;;;;;;13.73;8.05;;;;;;;;;;5056945;28;25090;-69
2023/05/31 08:43:46;;;;;;;17.73;8.10;;;;;;;;;;5054429;28;25059;-70
2023/05/31 08:46:14;;;;;;;19.05;8.00;;;;;;;;;;5054153;28;25044;-70
2023/05/31 08:48:43;;;;;;;15.80;7.32;;;;;;;;;;5040240;28;25078;-69
2023/05/31 08:51:10;;;;;;;12.27;7.47;;;;;;;;;;5053586;28;25100;-69
2023/05/31 08:53:36;;;;;;;15.88;6.68;;;;;;;;;;5053661;28;25064;-70
2023/05/31 08:56:08;;;;;;;13.73;7.32;;;;;;;;;;5057628;28;25075;-70
2023/05/31 08:58:35;;;;;;;15.43;7.50;;;;;;;;;;5056890;28;25076;-69
2023/05/31 09:01:02;;;;;;;14.60;6.53;;;;;;;;;;5053458;28;25100;-70
2023/05/31 09:03:28;;;;;;;15.40;7.43;;;;;;;;;;5053870;28;25063;-70
2023/05/31 09:05:57;;;;;;;15.88;7.53;;;;;;;;;;5055168;28;25130;-70
2023/05/31 09:08:23;;;;;;;15.43;7.75;;;;;;;;;;5053232;28;25138;-70
2023/05/31 09:10:50;;;;;;;14.65;7.65;;;;;;;;;;5053129;28;25072;-68
2023/05/31 09:13:16;;;;;;;17.95;7.00;;;;;;;;;;5051777;28;25057;-69
2023/05/31 09:15:43;;;;;;;16.17;8.00;;;;;;;;;;5053886;28;25065;-70
2023/05/31 09:18:16;;;;;;;16.83;7.38;;;;;;;;;;5052898;28;25071;-69
2023/05/31 09:20:43;;;;;;;14.27;7.78;;;;;;;;;;5042226;28;25141;-69
2023/05/31 09:23:10;;;;;;;20.50;8.05;;;;;;;;;;5051989;28;25070;-69
2023/05/31 09:25:45;;;;;;;16.13;6.93;;;;;;;;;;5053834;28;25127;-71
2023/05/31 09:28:12;;;;;;;13.23;7.13;;;;;;;;;;5051835;28;25070;-71
2023/05/31 09:30:38;;;;;;;16.40;7.55;;;;;;;;;;5053894;28;25151;-70
2023/05/31 09:33:04;;;;;;;12.57;6.18;;;;;;;;;;5053868;28;25091;-68
2023/05/31 09:35:30;;;;;;;13.05;6.50;;;;;;;;;;5053397;28;25087;-68
2023/05/31 09:37:56;;;;;;;13.57;6.32;;;;;;;;;;5052044;28;25105;-70
2023/05/31 09:40:24;;;;;;;12.75;5.78;;;;;;;;;;5052041;28;25055;-71
2023/05/31 09:42:50;;;;;;;10.82;6.10;;;;;;;;;;5053236;28;25064;-72
2023/05/31 09:45:17;;;;;;;13.73;6.45;;;;;;;;;;5053695;28;25500;-70
2023/05/31 09:47:43;;;;;;;18.25;6.25;;;;;;;;;;5052684;28;25080;-69
2023/05/31 09:50:16;;;;;;;13.40;6.60;;;;;;;;;;5042427;28;25064;-72
2023/05/31 09:52:43;;;;;;;8.85;5.38;;;;;;;;;;5054456;28;25118;-71
2023/05/31 09:55:10;;;;;;;14.90;5.82;;;;;;;;;;5052802;28;25162;-72
2023/05/31 09:57:40;;;;;;;12.63;5.90;;;;;;;;;;5050904;28;25052;-70
2023/05/31 10:00:15;;;;;;;16.45;6.28;;;;;;;;;;5052315;28;25055;-72
2023/05/31 10:02:48;;;;;;;12.98;6.68;;;;;;;;;;5040550;28;25122;-69
2023/05/31 10:05:14;;;;;;;13.45;6.72;;;;;;;;;;5047025;28;25076;-70
2023/05/31 10:07:42;;;;;;;12.00;6.07;;;;;;;;;;5052167;28;25134;-70
2023/05/31 10:10:08;;;;;;;14.52;6.85;;;;;;;;;;5056129;28;25156;-70
2023/05/31 10:12:37;;;;;;;10.45;5.60;;;;;;;;;;5053282;28;25071;-72
2023/05/31 10:15:08;;;;;;;11.50;5.68;;;;;;;;;;5043272;28;25068;-71
2023/05/31 10:17:36;;;;;;;12.55;6.18;;;;;;;;;;5054178;28;25108;-70
2023/05/31 10:20:04;;;;;;;11.48;5.20;;;;;;;;;;5053027;28;25057;-69
2023/05/31 10:22:31;;;;;;;9.88;4.57;;;;;;;;;;5053325;28;25080;-69
2023/05/31 10:25:04;;;;;;;9.15;5.47;;;;;;;;;;5053650;28;25064;-69
2023/05/31 10:27:33;;;;;;;13.63;6.13;;;;;;;;;;5053470;28;25152;-68
2023/05/31 10:30:04;;;;;;;16.20;5.35;;;;;;;;;;5059080;28;25097;-69
2023/05/31 10:32:33;;;;;;;10.50;5.03;;;;;;;;;;5053269;28;25082;-70
2023/05/31 10:34:59;;;;;;;9.35;5.00;;;;;;;;;;5053782;28;25135;-70
2023/05/31 10:37:25;;;;;;;11.40;4.57;;;;;;;;;;5056180;28;25104;-70
2023/05/31 10:39:58;;;;;;;9.35;4.97;;;;;;;;;;5056403;28;25052;-71
2023/05/31 10:42:46;;;;;;;12.25;4.63;;;;;;;;;;5056341;28;25072;-70
2023/05/31 10:45:17;;;;;;;14.88;5.82;;;;;;;;;;5057370;28;25100;-71
2023/05/31 10:47:50;;;;;;;5.63;3.80;;;;;;;;;;5056586;28;25072;-71
2023/05/31 10:50:20;;;;;;;8.95;3.85;;;;;;;;;;5057192;28;25069;-72
2023/05/31 10:52:49;;;;;;;7.28;4.85;;;;;;;;;;5057459;28;25143;-71
2023/05/31 10:55:17;;;;;;;6.45;3.95;;;;;;;;;;5057385;28;25060;-70
2023/05/31 10:57:43;;;;;;;7.55;4.07;;;;;;;;;;5058982;28;25158;-71
2023/05/31 11:00:11;;;;;;;6.95;3.80;;;;;;;;;;5059548;28;25144;-70
2023/05/31 11:02:38;;;;;;;7.28;4.05;;;;;;;;;;5059463;28;25107;-72
2023/05/31 11:05:37;;;;;;;8.27;4.47;;;;;;;;;;5060077;28;25055;-69
2023/05/31 11:08:14;;;;;;;8.48;4.53;;;;;;;;;;5014879;28;25079;-70
2023/05/31 11:10:40;;;;;;;9.07;4.85;;;;;;;;;;5060347;28;25100;-70
2023/05/31 11:13:07;;;;;;;17.25;4.80;;;;;;;;;;5045516;28;25096;-71
2023/05/31 11:15:40;;;;;;;10.82;4.97;;;;;;;;;;5062086;28;25138;-70
2023/05/31 11:18:09;;;;;;;9.43;4.93;;;;;;;;;;5058730;28;25060;-69
2023/05/31 11:20:36;;;;;;;10.13;3.72;;;;;;;;;;5059356;28;25061;-71
2023/05/31 11:23:20;;;;;;;10.57;3.75;;;;;;;;;;5057535;28;25063;-71
2023/05/31 11:26:21;;;;;;;10.52;4.35;;;;;;;;;;5058081;28;25062;-70
2023/05/31 11:28:51;;;;;;;8.13;4.00;;;;;;;;;;4994594;28;25145;-70
2023/05/31 11:31:18;;;;;;;9.38;4.28;;;;;;;;;;5048584;28;25065;-70
2023/05/31 11:33:45;;;;;;;11.77;3.88;;;;;;;;;;5060970;28;25066;-71
2023/05/31 11:36:11;;;;;;;8.05;4.45;;;;;;;;;;5073140;28;25065;-68
2023/05/31 11:38:36;;;;;;;10.57;4.35;;;;;;;;;;5069160;28;25072;-70
2023/05/31 11:41:03;;;;;;;8.95;4.47;;;;;;;;;;5063729;28;25084;-71
2023/05/31 11:43:29;;;;;;;11.32;4.00;;;;;;;;;;5057846;28;25055;-70
2023/05/31 11:45:55;;;;;;;10.93;4.63;;;;;;;;;;5061271;28;25066;-71
2023/05/31 11:48:25;;;;;;;9.23;3.30;;;;;;;;;;5067159;28;25066;-73
2023/05/31 11:50:51;;;;;;;7.07;3.72;;;;;;;;;;5069901;28;25064;-70
2023/05/31 11:53:16;;;;;;;14.45;4.30;;;;;;;;;;5068684;28;25057;-70
2023/05/31 11:55:48;;;;;;;9.25;3.90;;;;;;;;;;5063793;28;25055;-69
2023/05/31 11:58:15;;;;;;;7.85;3.83;;;;;;;;;;5059365;28;25144;-70
2023/05/31 12:00:47;;;;;;;11.23;4.50;;;;;;;;;;5046196;28;25056;-72
2023/05/31 12:03:13;;;;;;;;;;;;;;;;;;5059779;28;25087;-70
2023/05/31 12:05:39;;;;;;;10.00;4.32;;;;;;;;;;5060820;28;25067;-72
2023/05/31 12:08:09;;;;;;;9.45;3.75;;;;;;;;;;5060290;28;25067;-71
2023/05/31 12:10:36;;;;;;;10.60;4.75;;;;;;;;;;5061504;28;25141;-72
2023/05/31 12:13:03;;;;;;;9.35;5.30;;;;;;;;;;5063870;28;25066;-71
2023/05/31 12:15:32;;;;;;;14.63;3.78;;;;;;;;;;5060521;28;25066;-69
2023/05/31 12:17:59;;;;;;;12.82;3.50;;;;;;;;;;5065553;28;25072;-72
2023/05/31 12:20:29;;;;;;;14.25;5.63;;;;;;;;;;5062172;28;25095;-72
2023/05/31 12:23:09;;;;;;;14.65;5.40;;;;;;;;;;5057158;28;25061;-71
2023/05/31 12:25:35;;;;;;;7.75;4.18;;;;;;;;;;5063063;28;25054;-72
2023/05/31 12:28:02;;;;;;;11.02;4.70;;;;;;;;;;5062608;28;25061;-72
2023/05/31 12:30:28;;;;;;;16.40;7.05;;;;;;;;;;5060881;28;25119;-71
2023/05/31 12:32:57;;;;;;;14.80;5.70;;;;;;;;;;5061891;28;25135;-70
2023/05/31 12:35:23;;;;;;;10.38;5.05;;;;;;;;;;5043718;28;25127;-70
2023/05/31 12:37:51;;;;;;;12.23;4.85;;;;;;;;;;5054204;28;25072;-70
2023/05/31 12:40:22;;;;;;;10.15;4.97;;;;;;;;;;5055782;28;25056;-70
2023/05/31 12:42:48;;;;;;;10.35;4.30;;;;;;;;;;5054575;28;25055;-70
2023/05/31 12:45:17;;;;;;;12.95;5.45;;;;;;;;;;5054566;28;25080;-70
2023/05/31 12:47:43;;;;;;;11.18;5.03;;;;;;;;;;5053214;28;25095;-73
2023/05/31 12:50:10;;;;;;;15.07;5.93;;;;;;;;;;5054177;28;25072;-71
2023/05/31 12:52:38;;;;;;;12.07;6.07;;;;;;;;;;5054481;28;25096;-70
2023/05/31 12:55:05;;;;;;;10.35;6.00;;;;;;;;;;5054813;28;25094;-71
2023/05/31 12:57:31;;;;;;;11.48;6.40;;;;;;;;;;5053881;28;25094;-71
2023/05/31 13:00:11;;;;;;;15.25;7.18;;;;;;;;;;5057541;28;25092;-72
2023/05/31 13:02:37;;;;;;;11.55;6.07;;;;;;;;;;5052955;28;25311;-73
2023/05/31 13:05:05;;;;;;;17.98;6.90;;;;;;;;;;5054215;28;25091;-69
2023/05/31 13:07:31;;;;;;;15.35;6.60;;;;;;;;;;5054162;28;25265;-73
2023/05/31 13:09:56;;;;;;;9.68;6.40;;;;;;;;;;5055515;28;25098;-72
2023/05/31 13:12:22;;;;;;;17.35;7.43;;;;;;;;;;5052636;28;25070;-71
2023/05/31 13:14:51;;;;;;;11.65;6.65;;;;;;;;;;5054935;28;25062;-70
2023/05/31 13:17:18;;;;;;;13.27;6.82;;;;;;;;;;5051890;28;25077;-70
2023/05/31 13:19:44;;;;;;;9.25;5.32;;;;;;;;;;5053534;28;25026;-72
2023/05/31 13:22:10;;;;;;;13.82;6.25;;;;;;;;;;5037471;28;25065;-72
2023/05/31 13:24:36;;;;;;;15.45;6.50;;;;;;;;;;5053898;28;25073;-70
2023/05/31 13:27:03;;;;;;;11.07;6.20;;;;;;;;;;5054188;28;25125;-73
2023/05/31 13:29:29;;;;;;;12.38;6.40;;;;;;;;;;5042241;28;25056;-72
2023/05/31 13:31:55;;;;;;;11.80;6.00;;;;;;;;;;5056340;28;25063;-69
2023/05/31 13:34:21;;;;;;;12.23;5.72;;;;;;;;;;5042315;28;25110;-70
2023/05/31 13:36:47;;;;;;;9.95;5.45;;;;;;;;;;5056875;28;25140;-69
2023/05/31 13:39:14;;;;;;;13.52;5.75;;;;;;;;;;5051176;28;25072;-69
2023/05/31 13:41:42;;;;;;;11.95;6.18;;;;;;;;;;5056256;28;25073;-70
2023/05/31 13:44:08;;;;;;;11.65;6.30;;;;;;;;;;5052239;28;25057;-70
2023/05/31 13:46:34;;;;;;;14.10;7.03;;;;;;;;;;5054400;28;25173;-70
2023/05/31 13:49:00;;;;;;;12.45;6.03;;;;;;;;;;5052404;28;25109;-74
2023/05/31 13:51:26;;;;;;;16.25;6.88;;;;;;;;;;5055390;28;25122;-70
2023/05/31 13:53:52;;;;;;;15.65;6.22;;;;;;;;;;5054071;28;25067;-71
2023/05/31 13:56:18;;;;;;;12.20;5.50;;;;;;;;;;5055251;28;25055;-72
2023/05/31 13:58:44;;;;;;;20.90;6.75;;;;;;;;;;5053289;28;25067;-71
2023/05/31 14:01:11;;;;;;;14.73;6.45;;;;;;;;;;5053789;28;25153;-70
2023/05/31 14:03:40;;;;;;;14.70;7.20;;;;;;;;;;5053648;28;25070;-70
2023/05/31 14:06:06;;;;;;;19.20;6.53;;;;;;;;;;5041672;28;25105;-69
2023/05/31 14:08:32;;;;;;;13.52;6.88;;;;;;;;;;5053904;28;25095;-72
2023/05/31 14:10:58;;;;;;;10.30;6.20;;;;;;;;;;5054393;28;25069;-70
2023/05/31 14:13:24;;;;;;;12.85;6.80;;;;;;;;;;5052030;28;25156;-70
2023/05/31 14:15:51;;;;;;;17.88;6.45;;;;;;;;;;5055154;28;25100;-71
2023/05/31 14:18:17;;;;;;;14.35;6.25;;;;;;;;;;5053207;28;25083;-71
2023/05/31 14:20:43;;;;;;;15.00;6.60;;;;;;;;;;5054305;28;25171;-70
2023/05/31 14:23:09;;;;;;;17.40;6.82;;;;;;;;;;5053120;28;25075;-73
2023/05/31 14:25:35;;;;;;;15.75;6.63;;;;;;;;;;5058920;28;25141;-70
2023/05/31 14:28:01;;;;;;;15.68;6.28;;;;;;;;;;5054967;28;25132;-71
2023/05/31 14:30:27;;;;;;;11.43;6.45;;;;;;;;;;5054679;28;25093;-71
2023/05/31 14:32:53;;;;;;;15.00;6.65;;;;;;;;;;5056092;28;25050;-73